Etusivu
METAR-TAF:

METAR-TAF

Lentoasemat :

Alton / St. Louis, Illinois, Yhdysvallat

Leveyspiiri: 38-54N, Pituuspiiri: 090-03W, korkeus merenpinnasta: 166 m

Tämänhetkinen sää

Tämä raportti tehtiin 22 minuuttia sitten, kello 04.55 UTC
tyyntä
Lämpötila 6°C
Kosteus 93%
Ilmanpaine 1020 hPa
Näkyvyys: 16.1 km
Pilvistä 2800 ft:n korkeudessa

METAR: KALN 050455Z AUTO 00000KT 10SM OVC028 06/05 A3012 RMK AO2 T00610050

Aika: 00:17 (05:17 UTC)


TAF: puuttuu

Säähavainnot ja -ennusteet yli 4000 lentoasemalta (METAR- ja TAF-raportit).

Käytössä olevat sääasemat on merkitty karttaan keltaisilla ja punaisilla pisteillä.

Aseta hiiri pisteen päälle nähdäksesi sääaseman nimen.

Klikkaa sitten nähdäksesi säähavainnot ja -ennusteet.

Kartan vaihtaminen: klikkaa mustalla rastilla varustettuja vihreitä pisteitä, niin voit zoomata sisään; viivalla varustettua vihreää pistettä, niin voit zoomata ulos tai vihreitä nuolia, niin pääset viereisille kartoille.


METAR-TAF: